sensor_id;sensor_type;location;lat;lon;timestamp;pressure;altitude;pressure_sealevel;temperature;humidity
49342;BME280;35210;41.606;-87.602;2023-08-12T00:01:14;98633.47;;;30.14;72.42
49342;BME280;35210;41.606;-87.602;2023-08-12T00:03:43;98635.09;;;30.15;72.20
49342;BME280;35210;41.606;-87.602;2023-08-12T00:06:11;98631.31;;;30.16;72.14
49342;BME280;35210;41.606;-87.602;2023-08-12T00:08:40;98626.13;;;30.15;73.03
49342;BME280;35210;41.606;-87.602;2023-08-12T00:11:09;98627.69;;;30.05;72.86
49342;BME280;35210;41.606;-87.602;2023-08-12T00:13:37;98630.19;;;30.12;73.70
49342;BME280;35210;41.606;-87.602;2023-08-12T00:16:07;98634.81;;;30.12;72.60
49342;BME280;35210;41.606;-87.602;2023-08-12T00:18:35;98642.13;;;30.06;72.72
49342;BME280;35210;41.606;-87.602;2023-08-12T00:21:07;98641.31;;;30.05;73.60
49342;BME280;35210;41.606;-87.602;2023-08-12T00:23:39;98639.63;;;29.99;73.68
49342;BME280;35210;41.606;-87.602;2023-08-12T00:26:09;98637.47;;;30.01;73.23
49342;BME280;35210;41.606;-87.602;2023-08-12T00:28:38;98639.06;;;29.97;73.46
49342;BME280;35210;41.606;-87.602;2023-08-12T00:31:09;98637.16;;;29.98;73.68
49342;BME280;35210;41.606;-87.602;2023-08-12T00:33:38;98642.59;;;29.98;73.95
49342;BME280;35210;41.606;-87.602;2023-08-12T00:36:06;98631.44;;;29.99;73.68
49342;BME280;35210;41.606;-87.602;2023-08-12T00:38:35;98645.84;;;29.95;74.03
49342;BME280;35210;41.606;-87.602;2023-08-12T00:41:03;98635.47;;;29.92;74.34
49342;BME280;35210;41.606;-87.602;2023-08-12T00:43:33;98644.72;;;29.91;74.47
49342;BME280;35210;41.606;-87.602;2023-08-12T00:46:01;98646.59;;;29.85;74.97
49342;BME280;35210;41.606;-87.602;2023-08-12T00:48:32;98653.13;;;29.84;75.13
49342;BME280;35210;41.606;-87.602;2023-08-12T00:51:01;98656.38;;;29.81;75.52
49342;BME280;35210;41.606;-87.602;2023-08-12T00:53:31;98667.78;;;29.78;75.61
49342;BME280;35210;41.606;-87.602;2023-08-12T00:56:00;98668.28;;;29.75;75.65
49342;BME280;35210;41.606;-87.602;2023-08-12T00:58:28;98678.09;;;29.76;75.71
49342;BME280;35210;41.606;-87.602;2023-08-12T01:00:57;98683.53;;;29.76;75.79
49342;BME280;35210;41.606;-87.602;2023-08-12T01:03:26;98678.09;;;29.71;75.82
49342;BME280;35210;41.606;-87.602;2023-08-12T01:05:56;98665.84;;;29.73;75.68
49342;BME280;35210;41.606;-87.602;2023-08-12T01:08:28;98670.19;;;29.69;75.74
49342;BME280;35210;41.606;-87.602;2023-08-12T01:11:06;98680.25;;;29.69;76.07
49342;BME280;35210;41.606;-87.602;2023-08-12T01:13:46;98672.88;;;29.64;76.00
49342;BME280;35210;41.606;-87.602;2023-08-12T01:16:16;98670.41;;;29.63;76.22
49342;BME280;35210;41.606;-87.602;2023-08-12T01:18:46;98676.38;;;29.60;76.43
49342;BME280;35210;41.606;-87.602;2023-08-12T01:21:17;98678.25;;;29.59;76.33
49342;BME280;35210;41.606;-87.602;2023-08-12T01:23:51;98669.81;;;29.56;76.70
49342;BME280;35210;41.606;-87.602;2023-08-12T01:26:19;98681.50;;;29.56;76.62
49342;BME280;35210;41.606;-87.602;2023-08-12T01:28:48;98688.28;;;29.54;76.76
49342;BME280;35210;41.606;-87.602;2023-08-12T01:31:21;98705.13;;;29.51;77.00
49342;BME280;35210;41.606;-87.602;2023-08-12T01:33:57;98702.41;;;29.51;77.17
49342;BME280;35210;41.606;-87.602;2023-08-12T01:36:29;98702.09;;;29.47;77.27
49342;BME280;35210;41.606;-87.602;2023-08-12T01:39:02;98717.84;;;29.45;77.55
49342;BME280;35210;41.606;-87.602;2023-08-12T01:41:31;98710.22;;;29.42;77.72
49342;BME280;35210;41.606;-87.602;2023-08-12T01:44:00;98712.59;;;29.38;77.92
49342;BME280;35210;41.606;-87.602;2023-08-12T01:46:29;98718.28;;;29.37;77.98
49342;BME280;35210;41.606;-87.602;2023-08-12T01:48:59;98716.06;;;29.34;78.17
49342;BME280;35210;41.606;-87.602;2023-08-12T01:51:28;98717.16;;;29.33;78.43
49342;BME280;35210;41.606;-87.602;2023-08-12T01:53:57;98727.22;;;29.32;78.73
49342;BME280;35210;41.606;-87.602;2023-08-12T01:56:28;98728.81;;;29.28;79.04
49342;BME280;35210;41.606;-87.602;2023-08-12T01:58:56;98732.59;;;29.27;79.46
49342;BME280;35210;41.606;-87.602;2023-08-12T02:01:25;98723.88;;;29.25;79.80
49342;BME280;35210;41.606;-87.602;2023-08-12T02:03:54;98720.84;;;29.22;79.95
49342;BME280;35210;41.606;-87.602;2023-08-12T02:06:22;98728.69;;;29.18;80.23
49342;BME280;35210;41.606;-87.602;2023-08-12T02:08:50;98739.31;;;29.20;80.16
49342;BME280;35210;41.606;-87.602;2023-08-12T02:11:18;98730.84;;;29.16;80.84
49342;BME280;35210;41.606;-87.602;2023-08-12T02:13:48;98728.91;;;29.11;81.00
49342;BME280;35210;41.606;-87.602;2023-08-12T02:16:16;98726.69;;;29.08;81.46
49342;BME280;35210;41.606;-87.602;2023-08-12T02:18:45;98730.47;;;29.07;81.38
49342;BME280;35210;41.606;-87.602;2023-08-12T02:21:13;98734.53;;;29.05;81.49
49342;BME280;35210;41.606;-87.602;2023-08-12T02:23:41;98732.69;;;29.10;81.70
49342;BME280;35210;41.606;-87.602;2023-08-12T02:26:10;98732.38;;;29.07;82.06
49342;BME280;35210;41.606;-87.602;2023-08-12T02:28:38;98726.94;;;29.07;82.11
49342;BME280;35210;41.606;-87.602;2023-08-12T02:31:08;98722.84;;;29.04;82.22
49342;BME280;35210;41.606;-87.602;2023-08-12T02:33:37;98717.59;;;28.98;83.26
49342;BME280;35210;41.606;-87.602;2023-08-12T02:36:06;98726.78;;;28.92;83.47
49342;BME280;35210;41.606;-87.602;2023-08-12T02:38:34;98727.22;;;28.84;84.16
49342;BME280;35210;41.606;-87.602;2023-08-12T02:41:02;98727.22;;;28.84;84.09
49342;BME280;35210;41.606;-87.602;2023-08-12T02:43:34;98715.19;;;28.79;84.25
49342;BME280;35210;41.606;-87.602;2023-08-12T02:46:21;98716.22;;;28.73;85.05
49342;BME280;35210;41.606;-87.602;2023-08-12T02:48:55;98718.88;;;28.68;85.42
49342;BME280;35210;41.606;-87.602;2023-08-12T02:51:24;98721.66;;;28.73;85.13
49342;BME280;35210;41.606;-87.602;2023-08-12T02:53:53;98722.97;;;28.71;85.34
49342;BME280;35210;41.606;-87.602;2023-08-12T02:56:21;98719.44;;;28.70;85.40
49342;BME280;35210;41.606;-87.602;2023-08-12T02:58:52;98723.47;;;28.68;85.58
49342;BME280;35210;41.606;-87.602;2023-08-12T03:01:22;98724.81;;;28.65;85.67
49342;BME280;35210;41.606;-87.602;2023-08-12T03:03:51;98730.16;;;28.60;86.04
49342;BME280;35210;41.606;-87.602;2023-08-12T03:06:19;98737.16;;;28.56;86.01
49342;BME280;35210;41.606;-87.602;2023-08-12T03:08:47;98756.19;;;28.56;86.38
49342;BME280;35210;41.606;-87.602;2023-08-12T03:11:15;98752.06;;;28.54;86.31
49342;BME280;35210;41.606;-87.602;2023-08-12T03:13:47;98747.47;;;28.54;86.47
49342;BME280;35210;41.606;-87.602;2023-08-12T03:16:16;98750.69;;;28.51;87.19
49342;BME280;35210;41.606;-87.602;2023-08-12T03:18:50;98746.31;;;28.50;87.92
49342;BME280;35210;41.606;-87.602;2023-08-12T03:21:19;98738.69;;;28.47;88.75
49342;BME280;35210;41.606;-87.602;2023-08-12T03:23:47;98738.94;;;28.45;89.37
49342;BME280;35210;41.606;-87.602;2023-08-12T03:26:15;98735.72;;;28.49;89.22
49342;BME280;35210;41.606;-87.602;2023-08-12T03:28:44;98740.25;;;28.43;89.71
49342;BME280;35210;41.606;-87.602;2023-08-12T03:31:12;98732.03;;;28.38;90.21
49342;BME280;35210;41.606;-87.602;2023-08-12T03:33:40;98721.75;;;28.40;90.02
49342;BME280;35210;41.606;-87.602;2023-08-12T03:36:12;98725.03;;;28.42;90.48
49342;BME280;35210;41.606;-87.602;2023-08-12T03:38:41;98722.75;;;28.34;90.92
49342;BME280;35210;41.606;-87.602;2023-08-12T03:41:09;98719.69;;;28.30;91.10
49342;BME280;35210;41.606;-87.602;2023-08-12T03:43:38;98714.19;;;28.25;91.31
49342;BME280;35210;41.606;-87.602;2023-08-12T03:46:07;98722.09;;;28.27;91.70
49342;BME280;35210;41.606;-87.602;2023-08-12T03:48:35;98721.53;;;28.25;91.21
49342;BME280;35210;41.606;-87.602;2023-08-12T03:51:04;98714.44;;;28.24;91.65
49342;BME280;35210;41.606;-87.602;2023-08-12T03:53:34;98712.72;;;28.18;92.06
49342;BME280;35210;41.606;-87.602;2023-08-12T03:56:02;98710.84;;;28.18;92.04
49342;BME280;35210;41.606;-87.602;2023-08-12T03:58:30;98716.53;;;28.17;92.22
49342;BME280;35210;41.606;-87.602;2023-08-12T04:00:58;98707.31;;;28.18;92.20
49342;BME280;35210;41.606;-87.602;2023-08-12T04:03:27;98704.59;;;28.18;92.00
49342;BME280;35210;41.606;-87.602;2023-08-12T04:05:56;98707.56;;;28.16;92.01
49342;BME280;35210;41.606;-87.602;2023-08-12T04:08:24;98717.34;;;28.17;91.94
49342;BME280;35210;41.606;-87.602;2023-08-12T04:10:54;98711.09;;;28.17;92.38
49342;BME280;35210;41.606;-87.602;2023-08-12T04:13:22;98714.88;;;28.16;91.97
49342;BME280;35210;41.606;-87.602;2023-08-12T04:15:51;98720.81;;;28.12;92.39
49342;BME280;35210;41.606;-87.602;2023-08-12T04:18:19;98717.25;;;28.12;92.47
49342;BME280;35210;41.606;-87.602;2023-08-12T04:20:49;98724.59;;;28.11;92.18
49342;BME280;35210;41.606;-87.602;2023-08-12T04:23:17;98719.06;;;28.06;92.49
49342;BME280;35210;41.606;-87.602;2023-08-12T04:25:47;98728.28;;;28.05;92.52
49342;BME280;35210;41.606;-87.602;2023-08-12T04:28:16;98719.56;;;28.03;92.66
49342;BME280;35210;41.606;-87.602;2023-08-12T04:30:46;98718.19;;;28.01;92.82
49342;BME280;35210;41.606;-87.602;2023-08-12T04:33:14;98728.22;;;28.00;92.92
49342;BME280;35210;41.606;-87.602;2023-08-12T04:35:42;98726.81;;;27.98;93.31
49342;BME280;35210;41.606;-87.602;2023-08-12T04:38:11;98733.88;;;27.99;93.43
49342;BME280;35210;41.606;-87.602;2023-08-12T04:40:40;98727.31;;;27.95;93.68
49342;BME280;35210;41.606;-87.602;2023-08-12T04:43:08;98720.72;;;27.91;93.88
49342;BME280;35210;41.606;-87.602;2023-08-12T04:45:38;98725.09;;;27.92;93.43
49342;BME280;35210;41.606;-87.602;2023-08-12T04:48:07;98722.28;;;27.87;93.97
49342;BME280;35210;41.606;-87.602;2023-08-12T04:50:37;98724.75;;;27.71;95.27
49342;BME280;35210;41.606;-87.602;2023-08-12T04:53:05;98728.03;;;27.73;94.91
49342;BME280;35210;41.606;-87.602;2023-08-12T04:55:34;98736.03;;;27.80;94.90
49342;BME280;35210;41.606;-87.602;2023-08-12T04:58:03;98730.03;;;27.78;94.87
49342;BME280;35210;41.606;-87.602;2023-08-12T05:00:32;98740.78;;;27.73;95.17
49342;BME280;35210;41.606;-87.602;2023-08-12T05:03:02;98745.63;;;27.71;95.28
49342;BME280;35210;41.606;-87.602;2023-08-12T05:05:30;98739.63;;;27.69;95.51
49342;BME280;35210;41.606;-87.602;2023-08-12T05:07:58;98744.00;;;27.70;95.26
49342;BME280;35210;41.606;-87.602;2023-08-12T05:10:26;98754.00;;;27.69;95.36
49342;BME280;35210;41.606;-87.602;2023-08-12T05:12:57;98748.25;;;27.66;95.62
49342;BME280;35210;41.606;-87.602;2023-08-12T05:15:25;98764.53;;;27.66;95.72
49342;BME280;35210;41.606;-87.602;2023-08-12T05:17:53;98775.88;;;27.63;96.26
49342;BME280;35210;41.606;-87.602;2023-08-12T05:20:23;98777.63;;;27.57;96.51
49342;BME280;35210;41.606;-87.602;2023-08-12T05:22:51;98782.47;;;27.55;96.83
49342;BME280;35210;41.606;-87.602;2023-08-12T05:25:20;98799.00;;;27.54;97.17
49342;BME280;35210;41.606;-87.602;2023-08-12T05:27:48;98799.00;;;27.54;97.14
49342;BME280;35210;41.606;-87.602;2023-08-12T05:30:16;98801.13;;;27.52;97.51
49342;BME280;35210;41.606;-87.602;2023-08-12T05:32:44;98791.91;;;27.53;97.86
49342;BME280;35210;41.606;-87.602;2023-08-12T05:35:13;98803.25;;;27.49;98.33
49342;BME280;35210;41.606;-87.602;2023-08-12T05:37:42;98811.97;;;27.52;98.33
49342;BME280;35210;41.606;-87.602;2023-08-12T05:40:11;98817.09;;;27.48;98.55
49342;BME280;35210;41.606;-87.602;2023-08-12T05:42:39;98814.03;;;27.44;98.63
49342;BME280;35210;41.606;-87.602;2023-08-12T05:45:08;98812.63;;;27.42;98.80
49342;BME280;35210;41.606;-87.602;2023-08-12T05:47:36;98829.13;;;27.40;98.82
49342;BME280;35210;41.606;-87.602;2023-08-12T05:50:05;98830.19;;;27.39;98.92
49342;BME280;35210;41.606;-87.602;2023-08-12T05:52:34;98823.97;;;27.39;99.05
49342;BME280;35210;41.606;-87.602;2023-08-12T05:55:05;98817.72;;;27.38;99.20
49342;BME280;35210;41.606;-87.602;2023-08-12T05:57:34;98834.56;;;27.40;99.30
49342;BME280;35210;41.606;-87.602;2023-08-12T06:00:02;98831.25;;;27.38;99.43
49342;BME280;35210;41.606;-87.602;2023-08-12T06:02:31;98831.13;;;27.45;99.16
49342;BME280;35210;41.606;-87.602;2023-08-12T06:04:59;98828.91;;;27.42;98.84
49342;BME280;35210;41.606;-87.602;2023-08-12T06:07:28;98849.53;;;27.43;99.20
49342;BME280;35210;41.606;-87.602;2023-08-12T06:09:57;98853.63;;;27.45;99.19
49342;BME280;35210;41.606;-87.602;2023-08-12T06:12:27;98860.03;;;27.39;99.29
49342;BME280;35210;41.606;-87.602;2023-08-12T06:14:55;98857.78;;;27.36;99.35
49342;BME280;35210;41.606;-87.602;2023-08-12T06:17:24;98898.56;;;27.41;98.89
49342;BME280;35210;41.606;-87.602;2023-08-12T06:19:52;98958.81;;;27.43;99.41
49342;BME280;35210;41.606;-87.602;2023-08-12T06:22:20;98959.28;;;27.29;85.08
49342;BME280;35210;41.606;-87.602;2023-08-12T06:24:49;98967.78;;;27.09;75.87
49342;BME280;35210;41.606;-87.602;2023-08-12T06:27:17;98955.03;;;26.86;75.35
49342;BME280;35210;41.606;-87.602;2023-08-12T06:29:48;98961.03;;;26.65;73.92
49342;BME280;35210;41.606;-87.602;2023-08-12T06:32:16;98954.78;;;26.52;72.94
49342;BME280;35210;41.606;-87.602;2023-08-12T06:34:44;98956.88;;;26.39;73.45
49342;BME280;35210;41.606;-87.602;2023-08-12T06:37:13;98962.50;;;26.37;74.02
49342;BME280;35210;41.606;-87.602;2023-08-12T06:39:41;98966.72;;;26.33;72.97
49342;BME280;35210;41.606;-87.602;2023-08-12T06:42:10;98970.78;;;26.24;74.18
49342;BME280;35210;41.606;-87.602;2023-08-12T06:44:38;98956.44;;;26.24;74.27
49342;BME280;35210;41.606;-87.602;2023-08-12T06:47:08;98952.06;;;26.23;74.66
49342;BME280;35210;41.606;-87.602;2023-08-12T06:49:36;98948.78;;;26.20;74.91
49342;BME280;35210;41.606;-87.602;2023-08-12T06:52:05;98941.47;;;26.21;74.83
49342;BME280;35210;41.606;-87.602;2023-08-12T06:54:33;98938.69;;;26.28;73.87
49342;BME280;35210;41.606;-87.602;2023-08-12T06:57:01;98934.06;;;26.16;74.35
49342;BME280;35210;41.606;-87.602;2023-08-12T06:59:29;98927.22;;;26.14;74.66
49342;BME280;35210;41.606;-87.602;2023-08-12T07:01:58;98931.22;;;26.11;75.13
49342;BME280;35210;41.606;-87.602;2023-08-12T07:04:28;98914.25;;;26.04;75.32
49342;BME280;35210;41.606;-87.602;2023-08-12T07:06:56;98907.31;;;25.97;75.20
49342;BME280;35210;41.606;-87.602;2023-08-12T07:09:24;98922.59;;;25.91;76.10
49342;BME280;35210;41.606;-87.602;2023-08-12T07:11:52;98909.88;;;25.92;76.56
49342;BME280;35210;41.606;-87.602;2023-08-12T07:14:20;98914.47;;;25.91;76.62
49342;BME280;35210;41.606;-87.602;2023-08-12T07:16:49;98909.06;;;25.91;76.89
49342;BME280;35210;41.606;-87.602;2023-08-12T07:19:17;98899.88;;;25.92;76.95
49342;BME280;35210;41.606;-87.602;2023-08-12T07:21:47;98902.44;;;25.87;76.79
49342;BME280;35210;41.606;-87.602;2023-08-12T07:24:16;98881.28;;;25.84;77.10
49342;BME280;35210;41.606;-87.602;2023-08-12T07:26:44;98878.09;;;25.87;77.50
49342;BME280;35210;41.606;-87.602;2023-08-12T07:29:12;98877.16;;;25.81;77.16
49342;BME280;35210;41.606;-87.602;2023-08-12T07:31:40;98890.63;;;25.70;77.92
49342;BME280;35210;41.606;-87.602;2023-08-12T07:34:08;98893.31;;;25.70;78.30
49342;BME280;35210;41.606;-87.602;2023-08-12T07:36:39;98873.44;;;25.64;77.95
49342;BME280;35210;41.606;-87.602;2023-08-12T07:39:09;98866.81;;;25.60;78.63
49342;BME280;35210;41.606;-87.602;2023-08-12T07:41:37;98880.91;;;25.62;78.61
49342;BME280;35210;41.606;-87.602;2023-08-12T07:44:05;98878.31;;;25.55;78.50
49342;BME280;35210;41.606;-87.602;2023-08-12T07:46:34;98880.41;;;25.53;79.09
49342;BME280;35210;41.606;-87.602;2023-08-12T07:49:02;98879.34;;;25.54;79.53
49342;BME280;35210;41.606;-87.602;2023-08-12T07:51:30;98867.94;;;25.52;79.35
49342;BME280;35210;41.606;-87.602;2023-08-12T07:53:58;98852.53;;;25.53;79.61
49342;BME280;35210;41.606;-87.602;2023-08-12T07:56:28;98854.19;;;25.54;79.96
49342;BME280;35210;41.606;-87.602;2023-08-12T07:58:56;98837.75;;;25.55;80.14
49342;BME280;35210;41.606;-87.602;2023-08-12T08:01:25;98825.88;;;25.57;80.38
49342;BME280;35210;41.606;-87.602;2023-08-12T08:03:53;98806.72;;;25.58;79.92
49342;BME280;35210;41.606;-87.602;2023-08-12T08:06:22;98818.97;;;25.61;80.11
49342;BME280;35210;41.606;-87.602;2023-08-12T08:08:51;98811.69;;;25.61;80.01
49342;BME280;35210;41.606;-87.602;2023-08-12T08:11:19;98816.66;;;25.64;80.33
49342;BME280;35210;41.606;-87.602;2023-08-12T08:13:48;98805.84;;;25.64;79.91
49342;BME280;35210;41.606;-87.602;2023-08-12T08:16:17;98804.97;;;25.64;79.78
49342;BME280;35210;41.606;-87.602;2023-08-12T08:18:45;98806.88;;;25.63;80.36
49342;BME280;35210;41.606;-87.602;2023-08-12T08:21:13;98803.97;;;25.65;81.07
49342;BME280;35210;41.606;-87.602;2023-08-12T08:23:41;98799.38;;;25.65;81.19
49342;BME280;35210;41.606;-87.602;2023-08-12T08:26:10;98795.91;;;25.58;80.81
49342;BME280;35210;41.606;-87.602;2023-08-12T08:28:39;98788.63;;;25.59;80.78
49342;BME280;35210;41.606;-87.602;2023-08-12T08:31:09;98782.16;;;25.60;80.53
49342;BME280;35210;41.606;-87.602;2023-08-12T08:33:37;98779.31;;;25.54;81.14
49342;BME280;35210;41.606;-87.602;2023-08-12T08:36:05;98782.25;;;25.53;81.17
49342;BME280;35210;41.606;-87.602;2023-08-12T08:38:34;98786.25;;;25.50;81.50
49342;BME280;35210;41.606;-87.602;2023-08-12T08:41:03;98788.00;;;25.45;81.63
49342;BME280;35210;41.606;-87.602;2023-08-12T08:43:35;98779.47;;;25.30;82.13
49342;BME280;35210;41.606;-87.602;2023-08-12T08:46:06;98771.56;;;25.16;83.04
49342;BME280;35210;41.606;-87.602;2023-08-12T08:48:37;98759.56;;;25.12;83.71
49342;BME280;35210;41.606;-87.602;2023-08-12T08:51:06;98760.84;;;25.10;83.67
49342;BME280;35210;41.606;-87.602;2023-08-12T08:53:38;98754.03;;;25.07;84.01
49342;BME280;35210;41.606;-87.602;2023-08-12T08:56:07;98764.59;;;25.09;84.26
49342;BME280;35210;41.606;-87.602;2023-08-12T08:58:38;98757.69;;;25.13;84.26
49342;BME280;35210;41.606;-87.602;2023-08-12T09:01:09;98758.28;;;25.15;84.28
49342;BME280;35210;41.606;-87.602;2023-08-12T09:03:41;98763.69;;;25.15;84.20
49342;BME280;35210;41.606;-87.602;2023-08-12T09:06:10;98764.88;;;25.19;83.87
49342;BME280;35210;41.606;-87.602;2023-08-12T09:08:41;98763.69;;;25.15;84.33
49342;BME280;35210;41.606;-87.602;2023-08-12T09:11:12;98757.47;;;25.14;84.50
49342;BME280;35210;41.606;-87.602;2023-08-12T09:13:41;98754.41;;;25.11;84.77
49342;BME280;35210;41.606;-87.602;2023-08-12T09:16:09;98753.19;;;25.07;84.81
49342;BME280;35210;41.606;-87.602;2023-08-12T09:18:41;98745.19;;;25.00;85.22
49342;BME280;35210;41.606;-87.602;2023-08-12T09:21:10;98745.22;;;24.94;85.38
49342;BME280;35210;41.606;-87.602;2023-08-12T09:23:39;98747.34;;;24.92;85.83
49342;BME280;35210;41.606;-87.602;2023-08-12T09:26:15;98754.53;;;24.79;86.48
49342;BME280;35210;41.606;-87.602;2023-08-12T09:28:43;98765.03;;;24.69;87.19
49342;BME280;35210;41.606;-87.602;2023-08-12T09:31:22;98762.00;;;24.22;89.96
49342;BME280;35210;41.606;-87.602;2023-08-12T09:33:54;98768.13;;;24.11;90.74
49342;BME280;35210;41.606;-87.602;2023-08-12T09:36:28;98767.94;;;24.06;90.84
49342;BME280;35210;41.606;-87.602;2023-08-12T09:38:57;98762.22;;;23.96;91.58
49342;BME280;35210;41.606;-87.602;2023-08-12T09:41:27;98772.84;;;23.91;92.16
49342;BME280;35210;41.606;-87.602;2023-08-12T09:43:56;98776.84;;;23.82;92.57
49342;BME280;35210;41.606;-87.602;2023-08-12T09:46:24;98769.38;;;23.84;92.23
49342;BME280;35210;41.606;-87.602;2023-08-12T09:48:54;98760.91;;;23.80;92.59
49342;BME280;35210;41.606;-87.602;2023-08-12T09:51:22;98762.84;;;23.73;92.52
49342;BME280;35210;41.606;-87.602;2023-08-12T09:53:51;98768.72;;;23.64;92.36
49342;BME280;35210;41.606;-87.602;2023-08-12T09:56:23;98771.41;;;23.64;92.78
49342;BME280;35210;41.606;-87.602;2023-08-12T09:58:52;98779.69;;;23.69;92.21
49342;BME280;35210;41.606;-87.602;2023-08-12T10:01:22;98799.91;;;23.78;91.55
49342;BME280;35210;41.606;-87.602;2023-08-12T10:03:51;98803.22;;;23.80;91.19
49342;BME280;35210;41.606;-87.602;2023-08-12T10:06:21;98801.94;;;23.82;91.29
49342;BME280;35210;41.606;-87.602;2023-08-12T10:08:49;98806.50;;;23.82;91.15
49342;BME280;35210;41.606;-87.602;2023-08-12T10:11:18;98798.59;;;23.87;90.79
49342;BME280;35210;41.606;-87.602;2023-08-12T10:13:47;98802.69;;;23.96;90.59
49342;BME280;35210;41.606;-87.602;2023-08-12T10:16:16;98813.19;;;24.04;90.00
49342;BME280;35210;41.606;-87.602;2023-08-12T10:18:48;98813.34;;;24.09;90.18
49342;BME280;35210;41.606;-87.602;2023-08-12T10:21:17;98814.13;;;24.16;89.95
49342;BME280;35210;41.606;-87.602;2023-08-12T10:23:47;98815.94;;;24.22;89.48
49342;BME280;35210;41.606;-87.602;2023-08-12T10:26:17;98808.28;;;24.19;89.27
49342;BME280;35210;41.606;-87.602;2023-08-12T10:28:45;98815.00;;;24.10;90.09
49342;BME280;35210;41.606;-87.602;2023-08-12T10:31:13;98815.00;;;24.10;90.18
49342;BME280;35210;41.606;-87.602;2023-08-12T10:33:42;98802.84;;;24.01;90.75
49342;BME280;35210;41.606;-87.602;2023-08-12T10:36:11;98799.72;;;24.04;90.79
49342;BME280;35210;41.606;-87.602;2023-08-12T10:38:39;98779.84;;;23.99;91.12
49342;BME280;35210;41.606;-87.602;2023-08-12T10:41:19;98784.84;;;23.95;91.51
49342;BME280;35210;41.606;-87.602;2023-08-12T10:43:55;98786.06;;;23.99;91.34
49342;BME280;35210;41.606;-87.602;2023-08-12T10:46:29;98800.38;;;24.00;91.21
49342;BME280;35210;41.606;-87.602;2023-08-12T10:49:02;98815.06;;;24.04;90.97
49342;BME280;35210;41.606;-87.602;2023-08-12T10:51:45;98813.78;;;24.06;90.68
49342;BME280;35210;41.606;-87.602;2023-08-12T10:54:15;98817.09;;;24.08;90.80
49342;BME280;35210;41.606;-87.602;2023-08-12T10:57:07;98815.44;;;24.07;91.03
49342;BME280;35210;41.606;-87.602;2023-08-12T10:59:56;98812.09;;;24.12;91.01
49342;BME280;35210;41.606;-87.602;2023-08-12T11:02:29;98807.34;;;24.07;90.74
49342;BME280;35210;41.606;-87.602;2023-08-12T11:05:02;98803.44;;;24.03;91.26
49342;BME280;35210;41.606;-87.602;2023-08-12T11:07:34;98800.97;;;24.02;91.11
49342;BME280;35210;41.606;-87.602;2023-08-12T11:10:09;98792.66;;;24.03;91.36
49342;BME280;35210;41.606;-87.602;2023-08-12T11:12:42;98783.97;;;24.01;91.13
49342;BME280;35210;41.606;-87.602;2023-08-12T11:15:13;98782.66;;;24.10;90.89
49342;BME280;35210;41.606;-87.602;2023-08-12T11:17:42;98779.06;;;24.16;90.82
49342;BME280;35210;41.606;-87.602;2023-08-12T11:20:11;98780.88;;;24.22;90.51
49342;BME280;35210;41.606;-87.602;2023-08-12T11:22:41;98774.88;;;24.20;90.45
49342;BME280;35210;41.606;-87.602;2023-08-12T11:25:11;98762.22;;;24.21;90.36
49342;BME280;35210;41.606;-87.602;2023-08-12T11:27:44;98766.34;;;24.23;90.76
49342;BME280;35210;41.606;-87.602;2023-08-12T11:30:14;98767.13;;;24.31;90.62
49342;BME280;35210;41.606;-87.602;2023-08-12T11:32:43;98763.78;;;24.35;90.73
49342;BME280;35210;41.606;-87.602;2023-08-12T11:35:14;98764.59;;;24.36;91.57
49342;BME280;35210;41.606;-87.602;2023-08-12T11:37:44;98748.78;;;24.39;91.43
49342;BME280;35210;41.606;-87.602;2023-08-12T11:40:13;98742.13;;;24.42;91.45
49342;BME280;35210;41.606;-87.602;2023-08-12T11:42:44;98738.75;;;24.46;91.45
49342;BME280;35210;41.606;-87.602;2023-08-12T11:45:14;98734.78;;;24.49;92.01
49342;BME280;35210;41.606;-87.602;2023-08-12T11:47:42;98722.25;;;24.36;94.09
49342;BME280;35210;41.606;-87.602;2023-08-12T11:50:12;98719.84;;;24.28;94.63
49342;BME280;35210;41.606;-87.602;2023-08-12T11:52:40;98706.56;;;24.27;96.04
49342;BME280;35210;41.606;-87.602;2023-08-12T11:55:09;98717.75;;;24.30;95.93
49342;BME280;35210;41.606;-87.602;2023-08-12T11:57:39;98729.16;;;24.32;96.82
49342;BME280;35210;41.606;-87.602;2023-08-12T12:00:11;98729.97;;;24.33;97.71
49342;BME280;35210;41.606;-87.602;2023-08-12T12:02:46;98733.03;;;24.36;97.69
49342;BME280;35210;41.606;-87.602;2023-08-12T12:05:15;98731.78;;;24.39;98.45
49342;BME280;35210;41.606;-87.602;2023-08-12T12:07:44;98733.34;;;24.46;98.18
49342;BME280;35210;41.606;-87.602;2023-08-12T12:10:13;98738.53;;;24.48;99.32
49342;BME280;35210;41.606;-87.602;2023-08-12T12:12:44;98739.69;;;24.52;99.25
49342;BME280;35210;41.606;-87.602;2023-08-12T12:15:15;98740.91;;;24.56;99.45
49342;BME280;35210;41.606;-87.602;2023-08-12T12:17:45;98749.75;;;24.63;99.27
49342;BME280;35210;41.606;-87.602;2023-08-12T12:20:13;98745.09;;;24.70;99.81
49342;BME280;35210;41.606;-87.602;2023-08-12T12:22:42;98753.50;;;24.80;99.71
49342;BME280;35210;41.606;-87.602;2023-08-12T12:25:12;98761.00;;;24.78;100.00
49342;BME280;35210;41.606;-87.602;2023-08-12T12:27:42;98773.59;;;24.84;100.00
49342;BME280;35210;41.606;-87.602;2023-08-12T12:30:14;98762.78;;;24.84;100.00
49342;BME280;35210;41.606;-87.602;2023-08-12T12:32:43;98757.16;;;24.86;100.00
49342;BME280;35210;41.606;-87.602;2023-08-12T12:35:11;98755.44;;;24.92;100.00
49342;BME280;35210;41.606;-87.602;2023-08-12T12:37:40;98746.06;;;24.94;100.00
49342;BME280;35210;41.606;-87.602;2023-08-12T12:40:09;98761.84;;;24.97;100.00
49342;BME280;35210;41.606;-87.602;2023-08-12T12:42:38;98772.66;;;24.97;100.00
49342;BME280;35210;41.606;-87.602;2023-08-12T12:45:07;98775.94;;;24.99;100.00
49342;BME280;35210;41.606;-87.602;2023-08-12T12:47:37;98783.38;;;25.04;100.00
49342;BME280;35210;41.606;-87.602;2023-08-12T12:50:06;98769.78;;;25.10;100.00
49342;BME280;35210;41.606;-87.602;2023-08-12T12:52:35;98767.72;;;25.24;100.00